createdAt,value
2019-04-26T00:02:39.086Z,99.90
2019-04-26T00:05:09.410Z,99.90
2019-04-26T00:07:39.846Z,99.90
2019-04-26T00:10:20.393Z,99.90
2019-04-26T00:12:57.657Z,99.90
2019-04-26T00:15:51.745Z,99.90
2019-04-26T00:18:21.178Z,99.90
2019-04-26T00:20:50.617Z,99.90
2019-04-26T00:23:20.479Z,99.90
2019-04-26T00:25:49.950Z,99.90
2019-04-26T00:28:19.355Z,99.90
2019-04-26T00:30:48.924Z,99.90
2019-04-26T00:33:19.350Z,99.90
2019-04-26T00:35:49.050Z,99.90
2019-04-26T00:38:18.486Z,99.90
2019-04-26T00:40:49.368Z,99.90
2019-04-26T00:43:20.565Z,99.90
2019-04-26T00:45:53.049Z,99.90
2019-04-26T00:48:25.484Z,99.90
2019-04-26T00:50:55.949Z,99.90
2019-04-26T00:53:27.733Z,99.90
2019-04-26T00:55:58.397Z,99.90
2019-04-26T00:58:29.368Z,99.90
2019-04-26T01:00:59.034Z,99.90
2019-04-26T01:03:28.446Z,99.90
2019-04-26T01:06:00.401Z,99.90
2019-04-26T01:08:29.905Z,99.90
2019-04-26T01:10:59.306Z,99.90
2019-04-26T01:13:28.776Z,99.90
2019-04-26T01:15:58.161Z,99.90
2019-04-26T01:18:27.542Z,99.90
2019-04-26T01:21:00.329Z,99.90
2019-04-26T01:23:32.620Z,99.90
2019-04-26T01:26:19.227Z,99.90
2019-04-26T01:28:55.276Z,99.90
2019-04-26T01:31:26.814Z,99.90
2019-04-26T01:33:56.746Z,99.90
2019-04-26T01:36:28.484Z,99.90
2019-04-26T01:39:02.094Z,99.90
2019-04-26T01:41:40.176Z,99.90
2019-04-26T01:44:18.313Z,99.90
2019-04-26T01:46:48.477Z,99.90
2019-04-26T01:49:21.367Z,99.90
2019-04-26T01:52:03.378Z,99.90
2019-04-26T01:54:38.191Z,99.90
2019-04-26T01:57:08.170Z,99.90
2019-04-26T01:59:42.866Z,99.90
2019-04-26T02:02:38.089Z,99.90
2019-04-26T02:05:13.137Z,99.90
2019-04-26T02:07:43.137Z,99.90
2019-04-26T02:10:18.294Z,99.90
2019-04-26T02:12:49.079Z,99.90
2019-04-26T02:15:20.559Z,99.90
2019-04-26T02:17:52.231Z,99.90
2019-04-26T02:21:17.212Z,99.90
2019-04-26T02:23:52.869Z,99.90
2019-04-26T02:26:32.888Z,99.90
2019-04-26T02:29:05.397Z,99.90
2019-04-26T02:31:37.468Z,99.90
2019-04-26T02:34:07.470Z,99.90
2019-04-26T02:36:55.242Z,99.90
2019-04-26T02:39:20.391Z,99.90
2019-04-26T02:41:53.739Z,99.90
2019-04-26T02:44:30.714Z,99.90
2019-04-26T02:47:24.665Z,99.90
2019-04-26T02:49:58.222Z,99.90
2019-04-26T02:52:37.754Z,99.90
2019-04-26T02:55:42.273Z,99.90
2019-04-26T02:58:11.916Z,99.90
2019-04-26T03:00:41.446Z,99.90
2019-04-26T03:03:12.314Z,99.90
2019-04-26T03:05:43.273Z,99.90
2019-04-26T03:08:17.231Z,99.90
2019-04-26T03:10:51.768Z,99.90
2019-04-26T03:13:32.737Z,99.90
2019-04-26T03:16:23.632Z,99.90
2019-04-26T03:19:05.798Z,99.90
2019-04-26T03:22:10.166Z,99.90
2019-04-26T03:24:56.978Z,99.90
2019-04-26T03:27:48.398Z,99.90
2019-04-26T03:30:41.445Z,99.90
2019-04-26T03:33:27.528Z,99.90
2019-04-26T03:36:44.251Z,99.90
2019-04-26T03:39:28.745Z,99.90
2019-04-26T03:42:27.851Z,99.90
2019-04-26T03:45:21.489Z,99.90
2019-04-26T03:48:27.792Z,99.90
2019-04-26T03:51:08.802Z,99.90
2019-04-26T03:53:53.863Z,99.90
2019-04-26T03:57:13.073Z,99.90
2019-04-26T04:00:28.248Z,99.90
2019-04-26T04:03:28.593Z,99.90
2019-04-26T04:06:00.422Z,99.90
2019-04-26T04:08:39.748Z,99.90
2019-04-26T04:11:12.305Z,99.90
2019-04-26T04:13:51.198Z,99.90
2019-04-26T04:16:46.758Z,99.90
2019-04-26T04:20:30.403Z,99.90
2019-04-26T04:23:20.957Z,99.90
2019-04-26T04:25:52.786Z,99.90
2019-04-26T04:28:50.061Z,99.90
2019-04-26T04:31:28.419Z,99.90
2019-04-26T04:34:13.270Z,99.90
2019-04-26T04:36:50.583Z,99.90
2019-04-26T04:39:51.241Z,99.90
2019-04-26T04:42:55.085Z,99.90
2019-04-26T04:46:01.936Z,99.90
2019-04-26T04:48:46.431Z,99.90
2019-04-26T04:51:44.954Z,99.90
2019-04-26T04:54:20.970Z,99.90
2019-04-26T04:57:15.878Z,99.90
2019-04-26T05:00:02.524Z,99.90
2019-04-26T05:02:51.573Z,99.90
2019-04-26T05:06:07.208Z,99.90
2019-04-26T05:08:45.463Z,99.90
2019-04-26T05:11:23.713Z,99.90
2019-04-26T05:14:08.405Z,99.90
2019-04-26T05:17:03.966Z,99.90
2019-04-26T05:20:29.461Z,99.90
2019-04-26T05:23:27.766Z,99.90
2019-04-26T05:27:16.279Z,99.90
2019-04-26T05:30:19.958Z,99.90
2019-04-26T05:33:31.320Z,99.90
2019-04-26T05:36:32.065Z,99.90
2019-04-26T05:39:23.371Z,99.90
2019-04-26T05:42:11.457Z,99.90
2019-04-26T05:45:08.724Z,99.90
2019-04-26T05:48:08.385Z,99.90
2019-04-26T05:51:22.752Z,99.90
2019-04-26T05:54:32.786Z,99.90
2019-04-26T05:57:30.337Z,99.90
2019-04-26T06:00:25.106Z,99.90
2019-04-26T06:03:54.343Z,99.90
2019-04-26T06:06:41.146Z,99.90
2019-04-26T06:09:41.249Z,99.90
2019-04-26T06:12:31.271Z,99.90
2019-04-26T06:15:44.133Z,99.90
2019-04-26T06:18:49.655Z,99.90
2019-04-26T06:21:30.647Z,99.90
2019-04-26T06:24:18.362Z,99.90
2019-04-26T06:27:33.595Z,99.90
2019-04-26T06:30:12.763Z,99.90
2019-04-26T06:33:04.022Z,99.90
2019-04-26T06:35:31.993Z,99.90
2019-04-26T06:39:22.638Z,99.90
2019-04-26T06:42:37.540Z,99.90
2019-04-26T06:46:00.566Z,99.90
2019-04-26T06:48:57.074Z,99.90
2019-04-26T06:51:33.917Z,99.90
2019-04-26T06:54:25.513Z,99.90
2019-04-26T06:57:55.301Z,99.90
2019-04-26T07:00:30.620Z,99.90
2019-04-26T07:03:09.922Z,99.90
2019-04-26T07:05:42.875Z,99.90
2019-04-26T07:08:57.716Z,99.90
2019-04-26T07:12:09.396Z,99.90
2019-04-26T07:15:27.735Z,99.90
2019-04-26T07:18:10.803Z,99.90
2019-04-26T07:20:51.934Z,99.90
2019-04-26T07:24:08.409Z,99.90
2019-04-26T07:27:11.038Z,99.90
2019-04-26T07:30:07.228Z,99.90
2019-04-26T07:33:12.626Z,99.90
2019-04-26T07:36:10.635Z,99.90
2019-04-26T07:39:24.754Z,99.90
2019-04-26T07:42:35.005Z,99.90
2019-04-26T07:45:30.380Z,99.90
2019-04-26T07:48:36.908Z,99.90
2019-04-26T07:51:47.943Z,99.90
2019-04-26T07:55:04.864Z,99.90
2019-04-26T07:58:20.528Z,99.90
2019-04-26T08:01:12.732Z,99.90
2019-04-26T08:03:53.859Z,99.90
2019-04-26T08:06:39.158Z,99.90
2019-04-26T08:09:24.899Z,99.90
2019-04-26T08:11:52.026Z,99.90
2019-04-26T08:14:29.566Z,99.90
2019-04-26T08:17:16.508Z,99.90
2019-04-26T08:19:57.475Z,99.90
2019-04-26T08:22:28.736Z,99.90
2019-04-26T08:24:59.349Z,99.90
2019-04-26T08:27:31.673Z,99.90
2019-04-26T08:30:10.084Z,99.90
2019-04-26T08:32:43.017Z,99.90
2019-04-26T08:35:27.129Z,99.90
2019-04-26T08:38:01.308Z,99.90
2019-04-26T08:40:34.147Z,99.90
2019-04-26T08:43:30.873Z,99.90
2019-04-26T08:46:13.087Z,99.90
2019-04-26T08:49:06.447Z,99.90
2019-04-26T08:51:37.008Z,99.90
2019-04-26T08:54:11.591Z,99.90
2019-04-26T08:56:45.988Z,99.90
2019-04-26T08:59:21.584Z,99.90
2019-04-26T09:02:03.817Z,99.90
2019-04-26T09:04:40.369Z,99.90
2019-04-26T09:07:18.364Z,99.90
2019-04-26T09:09:57.191Z,99.90
2019-04-26T09:12:24.445Z,99.90
2019-04-26T09:14:56.469Z,99.90
2019-04-26T09:17:27.880Z,99.90
2019-04-26T09:19:58.292Z,99.90
2019-04-26T09:23:05.439Z,99.90
2019-04-26T09:25:40.850Z,99.90
2019-04-26T09:28:27.812Z,99.90
2019-04-26T09:31:19.735Z,99.90
2019-04-26T09:33:54.247Z,99.90
2019-04-26T09:36:23.644Z,99.90
2019-04-26T09:38:53.059Z,99.90
2019-04-26T09:41:22.501Z,99.90
2019-04-26T09:44:07.103Z,99.90
2019-04-26T09:46:52.586Z,99.90
2019-04-26T09:49:32.602Z,99.90
2019-04-26T09:52:03.006Z,99.90
2019-04-26T09:54:32.497Z,99.90
2019-04-26T09:57:01.906Z,99.90
2019-04-26T09:59:31.336Z,99.90
2019-04-26T10:02:00.850Z,99.90
2019-04-26T10:04:30.371Z,99.90
2019-04-26T10:07:03.173Z,99.90
2019-04-26T10:09:31.862Z,99.90
2019-04-26T10:12:06.919Z,99.90
2019-04-26T10:14:43.186Z,99.90
2019-04-26T10:17:15.633Z,99.90
2019-04-26T10:19:47.642Z,99.90
2019-04-26T10:22:17.185Z,99.90
2019-04-26T10:24:46.594Z,99.90
2019-04-26T10:27:16.021Z,99.90
2019-04-26T10:29:45.446Z,99.90
2019-04-26T10:32:14.945Z,99.90
2019-04-26T10:34:47.363Z,99.90
2019-04-26T10:37:15.479Z,99.90
2019-04-26T10:39:44.869Z,99.90
2019-04-26T10:42:14.595Z,99.90
2019-04-26T10:44:44.010Z,99.90
2019-04-26T10:47:15.654Z,99.90
2019-04-26T10:49:46.570Z,99.90
2019-04-26T10:52:45.671Z,99.90
2019-04-26T10:55:39.533Z,99.90
2019-04-26T10:58:14.743Z,99.90
2019-04-26T11:00:48.470Z,99.90
2019-04-26T11:03:16.444Z,99.90
2019-04-26T11:05:49.341Z,99.90
2019-04-26T11:08:20.347Z,99.90
2019-04-26T11:10:49.818Z,99.90
2019-04-26T11:13:19.292Z,99.90
2019-04-26T11:15:49.247Z,99.90
2019-04-26T11:18:19.817Z,99.90
2019-04-26T11:20:50.408Z,99.90
2019-04-26T11:23:19.768Z,99.90
2019-04-26T11:25:49.154Z,99.90
2019-04-26T11:28:21.372Z,99.90
2019-04-26T11:30:52.054Z,99.90
2019-04-26T11:33:20.968Z,99.90
2019-04-26T11:35:50.411Z,99.90
2019-04-26T11:38:21.756Z,99.90
2019-04-26T11:41:05.080Z,99.60
2019-04-26T11:43:22.026Z,99.90
2019-04-26T11:46:03.501Z,99.90
2019-04-26T11:48:25.507Z,99.90
2019-04-26T11:50:53.819Z,99.90
2019-04-26T11:53:25.143Z,99.70
2019-04-26T11:55:54.607Z,99.00
2019-04-26T11:58:24.206Z,99.50
2019-04-26T12:00:58.022Z,99.80
2019-04-26T12:03:27.586Z,99.90
2019-04-26T12:06:09.361Z,98.40
2019-04-26T12:09:00.631Z,98.40
2019-04-26T12:11:34.141Z,99.40
2019-04-26T12:14:03.844Z,98.90
2019-04-26T12:16:32.258Z,98.80
2019-04-26T12:19:01.677Z,99.90
2019-04-26T12:21:34.121Z,99.80
2019-04-26T12:24:04.400Z,98.10
2019-04-26T12:26:42.594Z,98.70
2019-04-26T12:29:04.969Z,98.70
2019-04-26T12:31:34.363Z,98.40
2019-04-26T12:34:03.778Z,98.70
2019-04-26T12:36:33.418Z,97.80
2019-04-26T12:39:03.329Z,98.10
2019-04-26T12:41:40.369Z,97.30
2019-04-26T12:44:04.017Z,96.70
2019-04-26T12:46:50.506Z,96.50
2019-04-26T12:49:20.221Z,97.10
2019-04-26T12:51:52.123Z,97.50
2019-04-26T12:54:21.648Z,98.10
2019-04-26T12:56:51.394Z,95.90
2019-04-26T12:59:22.381Z,96.20
2019-04-26T13:02:04.644Z,95.60
2019-04-26T13:04:35.326Z,95.80
2019-04-26T13:07:24.065Z,95.90
2019-04-26T13:10:13.069Z,95.70
2019-04-26T13:13:01.405Z,95.20
2019-04-26T13:15:59.593Z,93.80
2019-04-26T13:18:29.088Z,94.60
2019-04-26T13:21:02.602Z,94.40
2019-04-26T13:23:31.104Z,93.70
2019-04-26T13:26:01.532Z,93.00
2019-04-26T13:28:31.535Z,90.90
2019-04-26T13:31:02.382Z,91.80
2019-04-26T13:33:32.126Z,91.50
2019-04-26T13:36:03.267Z,91.20
2019-04-26T13:38:32.633Z,90.20
2019-04-26T13:41:04.779Z,90.40
2019-04-26T13:43:33.285Z,90.70
2019-04-26T13:46:37.022Z,91.00
2019-04-26T13:49:28.151Z,91.40
2019-04-26T13:51:57.885Z,90.20
2019-04-26T13:54:27.260Z,90.70
2019-04-26T13:56:56.702Z,91.60
2019-04-26T13:59:28.149Z,90.40
2019-04-26T14:01:57.674Z,90.20
2019-04-26T14:04:27.074Z,89.30
2019-04-26T14:06:56.474Z,88.20
2019-04-26T14:09:25.940Z,88.80
2019-04-26T14:11:58.058Z,88.40
2019-04-26T14:14:26.442Z,88.80
2019-04-26T14:16:57.078Z,89.00
2019-04-26T14:19:26.634Z,86.30
2019-04-26T14:21:56.007Z,86.00
2019-04-26T14:24:33.349Z,86.70
2019-04-26T14:27:10.368Z,83.60
2019-04-26T14:29:38.181Z,85.20
2019-04-26T14:32:07.756Z,84.60
2019-04-26T14:34:40.338Z,83.00
2019-04-26T14:37:11.207Z,85.50
2019-04-26T14:39:50.046Z,84.70
2019-04-26T14:42:10.776Z,85.50
2019-04-26T14:44:49.146Z,86.40
2019-04-26T14:47:14.870Z,88.90
2019-04-26T14:49:43.108Z,90.40
2019-04-26T14:52:12.656Z,90.80
2019-04-26T14:54:46.050Z,91.30
2019-04-26T14:57:19.925Z,91.10
2019-04-26T14:59:56.867Z,91.20
2019-04-26T15:02:41.642Z,90.50
2019-04-26T15:05:30.816Z,90.00
2019-04-26T15:08:05.397Z,90.50
2019-04-26T15:10:43.503Z,90.60
2019-04-26T15:13:17.304Z,88.60
2019-04-26T15:15:38.211Z,86.60
2019-04-26T15:18:07.829Z,86.70
2019-04-26T15:20:37.220Z,86.70
2019-04-26T15:23:06.631Z,87.50
2019-04-26T15:25:36.891Z,87.80
2019-04-26T15:28:06.857Z,87.90
2019-04-26T15:30:43.121Z,89.30
2019-04-26T15:33:12.714Z,88.30
2019-04-26T15:35:42.141Z,87.60
2019-04-26T15:38:11.753Z,88.10
2019-04-26T15:41:04.478Z,88.10
2019-04-26T15:43:56.937Z,85.60
2019-04-26T15:46:48.674Z,86.70
2019-04-26T15:49:50.470Z,83.80
2019-04-26T15:52:19.871Z,84.40
2019-04-26T15:54:52.935Z,84.40
2019-04-26T15:57:30.914Z,84.40
2019-04-26T15:59:58.165Z,84.70
2019-04-26T16:02:27.897Z,83.70
2019-04-26T16:04:57.288Z,85.10
2019-04-26T16:07:28.882Z,84.20
2019-04-26T16:09:57.779Z,84.90
2019-04-26T16:12:27.580Z,83.30
2019-04-26T16:14:57.008Z,85.50
2019-04-26T16:17:26.437Z,85.80
2019-04-26T16:19:56.069Z,86.90
2019-04-26T16:22:30.115Z,88.00
2019-04-26T16:25:01.417Z,89.50
2019-04-26T16:27:32.342Z,89.40
2019-04-26T16:30:08.837Z,90.60
2019-04-26T16:33:00.085Z,91.20
2019-04-26T16:35:29.585Z,90.80
2019-04-26T16:38:06.653Z,91.70
2019-04-26T16:40:32.690Z,90.90
2019-04-26T16:43:03.876Z,91.10
2019-04-26T16:45:37.219Z,91.60
2019-04-26T16:48:04.342Z,90.70
2019-04-26T16:50:38.197Z,90.50
2019-04-26T16:53:04.913Z,90.70
2019-04-26T16:55:37.159Z,90.20
2019-04-26T16:58:05.389Z,88.80
2019-04-26T17:00:50.759Z,90.30
2019-04-26T17:03:07.943Z,90.10
2019-04-26T17:05:48.191Z,90.00
2019-04-26T17:08:10.463Z,90.10
2019-04-26T17:10:39.371Z,91.40
2019-04-26T17:13:08.809Z,91.60
2019-04-26T17:15:38.276Z,91.90
2019-04-26T17:18:07.694Z,91.50
2019-04-26T17:20:40.533Z,91.70
2019-04-26T17:23:15.630Z,91.50
2019-04-26T17:26:00.117Z,91.80
2019-04-26T17:28:29.833Z,91.60
2019-04-26T17:30:59.210Z,91.00
2019-04-26T17:33:29.227Z,91.10
2019-04-26T17:35:58.759Z,91.20
2019-04-26T17:38:28.154Z,92.20
2019-04-26T17:40:57.524Z,92.00
2019-04-26T17:43:26.935Z,93.20
2019-04-26T17:45:56.423Z,94.00
2019-04-26T17:48:25.863Z,94.40
2019-04-26T17:50:57.280Z,94.00
2019-04-26T17:53:31.134Z,94.30
2019-04-26T17:55:57.627Z,94.70
2019-04-26T17:58:31.079Z,96.20
2019-04-26T18:01:03.818Z,97.00
2019-04-26T18:03:33.494Z,97.20
2019-04-26T18:06:03.075Z,99.90
2019-04-26T18:08:40.539Z,96.70
2019-04-26T18:11:03.628Z,91.10
2019-04-26T18:13:33.051Z,91.30
2019-04-26T18:16:03.603Z,92.00
2019-04-26T18:18:58.104Z,92.60
2019-04-26T18:21:45.374Z,94.60
2019-04-26T18:24:14.752Z,97.90
2019-04-26T18:26:44.154Z,98.90
2019-04-26T18:29:13.595Z,98.30
2019-04-26T18:31:43.826Z,99.90
2019-04-26T18:34:13.466Z,98.90
2019-04-26T18:36:43.048Z,98.20
2019-04-26T18:39:12.715Z,99.10
2019-04-26T18:41:42.117Z,99.90
2019-04-26T18:44:11.472Z,99.90
2019-04-26T18:47:02.807Z,99.90
2019-04-26T18:49:32.963Z,99.90
2019-04-26T18:52:03.726Z,99.90
2019-04-26T18:54:47.860Z,99.90
2019-04-26T18:57:17.199Z,99.90
2019-04-26T18:59:51.537Z,99.90
2019-04-26T19:02:19.934Z,99.90
2019-04-26T19:04:49.705Z,99.90
2019-04-26T19:07:31.290Z,99.90
2019-04-26T19:10:00.727Z,99.90
2019-04-26T19:12:25.390Z,99.90
2019-04-26T19:15:12.509Z,99.90
2019-04-26T19:17:51.575Z,99.90
2019-04-26T19:20:49.209Z,99.90
2019-04-26T19:23:18.681Z,99.90
2019-04-26T19:25:48.145Z,99.90
2019-04-26T19:28:17.574Z,99.90
2019-04-26T19:30:50.767Z,99.90
2019-04-26T19:33:18.574Z,99.90
2019-04-26T19:35:48.067Z,99.90
2019-04-26T19:38:17.448Z,99.90
2019-04-26T19:40:48.073Z,99.90
2019-04-26T19:43:28.281Z,99.90
2019-04-26T19:46:17.082Z,99.90
2019-04-26T19:49:25.692Z,99.90
2019-04-26T19:52:14.845Z,99.90
2019-04-26T19:54:55.188Z,99.90
2019-04-26T19:57:42.608Z,99.90
2019-04-26T20:00:12.446Z,99.90
2019-04-26T20:02:42.108Z,99.90
2019-04-26T20:05:11.911Z,99.90
2019-04-26T20:07:41.697Z,99.90
2019-04-26T20:10:12.838Z,99.90
2019-04-26T20:12:42.496Z,99.90
2019-04-26T20:15:25.178Z,99.90
2019-04-26T20:17:45.191Z,99.90
2019-04-26T20:20:19.414Z,99.90
2019-04-26T20:22:45.672Z,99.90
2019-04-26T20:25:15.519Z,99.90
2019-04-26T20:27:44.891Z,99.90
2019-04-26T20:30:27.594Z,99.90
2019-04-26T20:32:56.355Z,99.90
2019-04-26T20:35:26.715Z,99.90
2019-04-26T20:38:02.799Z,99.90
2019-04-26T20:40:28.086Z,99.90
2019-04-26T20:43:02.483Z,99.90
2019-04-26T20:45:38.655Z,99.90
2019-04-26T20:47:59.733Z,99.90
2019-04-26T20:50:35.151Z,99.90
2019-04-26T20:53:02.030Z,99.90
2019-04-26T20:55:34.514Z,99.90
2019-04-26T20:58:07.098Z,99.90
2019-04-26T21:00:36.508Z,99.90
2019-04-26T21:03:06.182Z,99.90
2019-04-26T21:05:45.665Z,99.90
2019-04-26T21:08:07.550Z,99.90
2019-04-26T21:10:36.909Z,99.90
2019-04-26T21:13:06.869Z,99.90
2019-04-26T21:15:36.284Z,99.90
2019-04-26T21:18:06.293Z,99.90
2019-04-26T21:20:36.518Z,99.90
2019-04-26T21:23:06.145Z,99.90
2019-04-26T21:25:45.745Z,99.90
2019-04-26T21:28:38.132Z,99.90
2019-04-26T21:31:36.160Z,99.90
2019-04-26T21:34:12.573Z,99.90
2019-04-26T21:37:03.429Z,99.90
2019-04-26T21:39:39.477Z,99.90
2019-04-26T21:42:10.283Z,99.90
2019-04-26T21:44:40.033Z,99.90
2019-04-26T21:47:09.525Z,99.90
2019-04-26T21:49:39.373Z,99.90
2019-04-26T21:52:08.763Z,99.90
2019-04-26T21:54:38.136Z,99.90
2019-04-26T21:57:07.519Z,99.90
2019-04-26T21:59:40.818Z,99.90
2019-04-26T22:02:08.369Z,99.90
2019-04-26T22:04:38.042Z,99.90
2019-04-26T22:07:07.892Z,99.90
2019-04-26T22:09:56.265Z,99.90
2019-04-26T22:12:27.313Z,99.90
2019-04-26T22:15:05.300Z,99.90
2019-04-26T22:17:40.530Z,99.90
2019-04-26T22:20:33.742Z,99.90
2019-04-26T22:23:33.087Z,99.90
2019-04-26T22:26:04.977Z,99.90
2019-04-26T22:28:35.931Z,99.90
2019-04-26T22:31:08.494Z,99.90
2019-04-26T22:33:37.371Z,99.90
2019-04-26T22:36:07.009Z,99.90
2019-04-26T22:38:36.470Z,99.90
2019-04-26T22:41:05.854Z,99.90
2019-04-26T22:43:54.145Z,99.90
2019-04-26T22:46:44.425Z,99.90
2019-04-26T22:49:05.595Z,99.90
2019-04-26T22:51:37.232Z,99.90
2019-04-26T22:54:06.399Z,99.90
2019-04-26T22:56:37.108Z,99.90
2019-04-26T22:59:07.980Z,99.90
2019-04-26T23:01:39.171Z,99.90
2019-04-26T23:04:09.438Z,99.90
2019-04-26T23:06:42.414Z,99.90
2019-04-26T23:09:11.720Z,99.90
2019-04-26T23:11:45.698Z,99.90
2019-04-26T23:14:23.570Z,99.90
2019-04-26T23:17:14.018Z,99.90
2019-04-26T23:19:54.307Z,99.90
2019-04-26T23:22:26.354Z,99.90
2019-04-26T23:24:58.030Z,99.90
2019-04-26T23:27:26.273Z,99.90
2019-04-26T23:29:58.274Z,99.90
2019-04-26T23:32:26.885Z,99.90
2019-04-26T23:34:58.124Z,99.90
2019-04-26T23:37:27.692Z,99.90
2019-04-26T23:39:57.254Z,99.90
2019-04-26T23:42:27.115Z,99.90
2019-04-26T23:44:56.596Z,99.90
2019-04-26T23:47:26.082Z,99.90
2019-04-26T23:49:56.936Z,99.90
2019-04-26T23:52:26.602Z,99.90
2019-04-26T23:54:56.010Z,99.90
2019-04-26T23:57:27.449Z,99.90
